Time;durP1;ratioP1;P1;durP2;ratioP2;P2;SDS_P1;SDS_P2;PMS_P1;PMS_P2;Temp;Humidity;BMP_temperature;BMP_pressure;BME280_temperature;BME280_humidity;BME280_pressure;Samples;Min_cycle;Max_cycle;Signal;HPM_P1;HPM_P2
2022/02/24 00:01:48;;;;;;;3.00;0.80;;;4.40;99.90;;;;;;5002270;28;20191;-79
2022/02/24 00:04:13;;;;;;;1.77;0.80;;;4.40;99.90;;;;;;5018353;28;20659;-80
2022/02/24 00:06:39;;;;;;;0.90;0.67;;;4.50;99.90;;;;;;5001634;28;20198;-79
2022/02/24 00:09:07;;;;;;;4.17;1.10;;;4.70;99.90;;;;;;5002159;28;20236;-79
2022/02/24 00:11:34;;;;;;;3.33;0.90;;;4.60;99.90;;;;;;4999700;28;20270;-80
2022/02/24 00:13:59;;;;;;;1.27;0.70;;;4.50;99.90;;;;;;5013305;28;20561;-80
2022/02/24 00:16:25;;;;;;;3.07;0.90;;;4.40;99.90;;;;;;5001931;28;20187;-79
2022/02/24 00:18:50;;;;;;;2.50;0.93;;;4.40;99.90;;;;;;4997931;28;20596;-79
2022/02/24 00:21:16;;;;;;;3.40;0.70;;;4.50;99.90;;;;;;4995267;28;20195;-79
2022/02/24 00:23:42;;;;;;;2.43;0.80;;;4.50;99.90;;;;;;5000834;28;20199;-79
2022/02/24 00:26:07;;;;;;;5.53;1.10;;;4.60;99.90;;;;;;5001692;28;20187;-78
2022/02/24 00:28:33;;;;;;;1.90;0.60;;;4.60;99.90;;;;;;4999125;28;20207;-77
2022/02/24 00:30:58;;;;;;;2.63;0.80;;;4.80;99.90;;;;;;4997052;28;20200;-78
2022/02/24 00:33:24;;;;;;;1.87;0.77;;;5.00;99.90;;;;;;4990607;28;20622;-79
2022/02/24 00:35:50;;;;;;;1.93;0.70;;;5.00;99.90;;;;;;4998606;28;20312;-80
2022/02/24 00:38:15;;;;;;;0.83;0.70;;;5.20;99.90;;;;;;4996695;28;20191;-80
2022/02/24 00:40:41;;;;;;;1.43;0.73;;;5.10;99.90;;;;;;4999660;28;20219;-78
2022/02/24 00:43:06;;;;;;;1.20;0.67;;;5.20;99.90;;;;;;5000257;28;20183;-80
2022/02/24 00:45:32;;;;;;;2.50;0.90;;;5.20;99.90;;;;;;5001594;28;20345;-78
2022/02/24 00:47:58;;;;;;;4.73;1.17;;;5.30;99.90;;;;;;5016622;28;20187;-78
2022/02/24 00:50:24;;;;;;;1.90;0.87;;;5.30;99.90;;;;;;4995914;28;20303;-79
2022/02/24 00:52:50;;;;;;;3.13;0.97;;;5.30;99.90;;;;;;5005913;28;20184;-80
2022/02/24 00:55:16;;;;;;;2.13;1.03;;;5.40;99.90;;;;;;5000704;28;20544;-78
2022/02/24 00:57:41;;;;;;;3.43;1.07;;;5.40;99.90;;;;;;5000449;28;20184;-80
2022/02/24 01:00:07;;;;;;;2.60;0.80;;;5.30;99.90;;;;;;4999560;28;20207;-80
2022/02/24 01:02:33;;;;;;;1.93;0.83;;;5.30;99.90;;;;;;5000514;28;20212;-78
2022/02/24 01:04:59;;;;;;;1.50;0.90;;;5.40;99.90;;;;;;5000024;28;20629;-78
2022/02/24 01:07:24;;;;;;;2.47;0.90;;;5.40;99.90;;;;;;5015317;28;20203;-79
2022/02/24 01:09:50;;;;;;;4.23;0.80;;;5.40;99.90;;;;;;5001084;28;20218;-78
2022/02/24 01:12:16;;;;;;;3.07;1.03;;;5.20;99.90;;;;;;5000515;28;20183;-80
2022/02/24 01:14:41;;;;;;;1.73;1.00;;;5.10;99.90;;;;;;4998163;28;20645;-79
2022/02/24 01:17:07;;;;;;;2.00;0.97;;;5.10;99.90;;;;;;4992727;28;20266;-78
2022/02/24 01:19:32;;;;;;;3.80;0.90;;;4.90;99.90;;;;;;5007415;28;20281;-78
2022/02/24 01:21:58;;;;;;;2.57;0.90;;;4.90;99.90;;;;;;4998684;28;20228;-78
2022/02/24 01:24:24;;;;;;;1.77;0.77;;;4.80;99.90;;;;;;4998848;28;20195;-78
2022/02/24 01:26:49;;;;;;;3.47;1.10;;;4.60;99.90;;;;;;4999259;28;20195;-78
2022/02/24 01:29:15;;;;;;;2.67;0.63;;;4.60;99.90;;;;;;4999246;28;20652;-79
2022/02/24 01:31:40;;;;;;;1.90;0.70;;;4.70;99.90;;;;;;5006859;28;20192;-78
2022/02/24 01:34:06;;;;;;;2.47;0.80;;;4.70;99.90;;;;;;5000158;28;20267;-78
2022/02/24 01:36:32;;;;;;;1.47;0.77;;;4.70;99.90;;;;;;4999194;28;20214;-78
2022/02/24 01:38:57;;;;;;;1.80;1.00;;;4.70;99.90;;;;;;5000368;28;20214;-79
2022/02/24 01:41:23;;;;;;;2.63;1.10;;;4.90;99.90;;;;;;5013575;28;20659;-78
2022/02/24 01:43:49;;;;;;;2.77;0.80;;;5.10;99.90;;;;;;5000686;28;20217;-78
2022/02/24 01:46:15;;;;;;;2.87;1.10;;;5.20;99.90;;;;;;4999527;28;20207;-77
2022/02/24 01:48:41;;;;;;;3.00;0.90;;;5.10;99.90;;;;;;4999383;28;20376;-78
2022/02/24 01:51:09;;;;;;;3.97;1.30;;;5.40;99.90;;;;;;4997966;28;20286;-78
2022/02/24 01:53:36;;;;;;;2.13;0.83;;;5.40;99.90;;;;;;4998126;28;20244;-77
2022/02/24 01:56:06;;;;;;;2.63;0.90;;;5.40;99.90;;;;;;4998743;28;20180;-79
2022/02/24 01:58:32;;;;;;;2.30;0.80;;;5.40;99.90;;;;;;4999206;28;20184;-78
2022/02/24 02:00:57;;;;;;;2.63;0.83;;;5.50;99.90;;;;;;5000822;28;20195;-80
2022/02/24 02:03:23;;;;;;;2.67;1.00;;;5.60;99.90;;;;;;4997776;28;20717;-78
2022/02/24 02:05:49;;;;;;;3.77;1.10;;;5.70;99.90;;;;;;4998621;28;20189;-80
2022/02/24 02:08:14;;;;;;;2.07;0.90;;;5.70;99.90;;;;;;4998068;28;20191;-78
2022/02/24 02:10:40;;;;;;;5.13;1.13;;;5.70;99.90;;;;;;4998322;28;20216;-78
2022/02/24 02:13:06;;;;;;;1.60;1.07;;;6.00;99.90;;;;;;4997488;28;20263;-78
2022/02/24 02:15:32;;;;;;;2.93;0.80;;;6.10;99.90;;;;;;4997999;28;20184;-78
2022/02/24 02:17:57;;;;;;;2.07;0.80;;;6.10;99.90;;;;;;4999762;28;20658;-78
2022/02/24 02:20:23;;;;;;;1.13;0.77;;;6.10;99.90;;;;;;4998205;28;20282;-80
2022/02/24 02:22:52;;;;;;;2.17;0.90;;;6.20;99.90;;;;;;4999139;28;20680;-77
2022/02/24 02:25:20;;;;;;;2.53;1.10;;;6.30;99.90;;;;;;4999421;28;20658;-80
2022/02/24 02:27:49;;;;;;;2.77;1.00;;;6.30;99.90;;;;;;5015829;28;20180;-79
2022/02/24 02:30:15;;;;;;;1.70;1.00;;;6.50;99.90;;;;;;5016702;28;20207;-80
2022/02/24 02:32:41;;;;;;;2.70;0.90;;;6.50;99.90;;;;;;4999157;28;20319;-79
2022/02/24 02:35:07;;;;;;;3.37;0.80;;;6.50;99.90;;;;;;4998394;28;20263;-78
2022/02/24 02:37:33;;;;;;;4.30;1.13;;;6.50;99.90;;;;;;4996873;28;20187;-79
2022/02/24 02:39:58;;;;;;;3.43;0.80;;;6.50;99.90;;;;;;4998901;28;20204;-79
2022/02/24 02:42:24;;;;;;;1.00;0.70;;;6.60;99.90;;;;;;4999152;28;20222;-79
2022/02/24 02:44:50;;;;;;;3.23;0.73;;;6.60;99.90;;;;;;4999444;28;20599;-81
2022/02/24 02:47:15;;;;;;;1.10;0.80;;;6.60;99.90;;;;;;4997941;28;20214;-81
2022/02/24 02:49:41;;;;;;;2.10;0.70;;;6.60;99.90;;;;;;5000596;28;20224;-79
2022/02/24 02:52:07;;;;;;;1.70;0.67;;;6.50;99.90;;;;;;4999687;28;20180;-80
2022/02/24 02:54:33;;;;;;;2.37;0.93;;;6.50;99.90;;;;;;4999316;28;20192;-80
2022/02/24 02:56:59;;;;;;;1.47;1.30;;;6.50;99.90;;;;;;4997703;28;20184;-79
2022/02/24 02:59:25;;;;;;;8.00;1.60;;;6.50;99.90;;;;;;4995595;28;20917;-77
2022/02/24 03:01:51;;;;;;;3.70;0.93;;;6.50;99.90;;;;;;5010938;28;20291;-80
2022/02/24 03:04:17;;;;;;;2.57;0.90;;;6.50;99.90;;;;;;4994324;28;20684;-80
2022/02/24 03:06:43;;;;;;;1.20;0.90;;;6.50;99.90;;;;;;4997167;28;20184;-78
2022/02/24 03:09:08;;;;;;;2.90;1.20;;;6.50;99.90;;;;;;5009913;28;20282;-81
2022/02/24 03:11:34;;;;;;;1.97;0.90;;;6.60;99.90;;;;;;4995987;28;20184;-78
2022/02/24 03:14:00;;;;;;;1.67;1.00;;;6.60;99.90;;;;;;4994807;28;20202;-78
2022/02/24 03:16:26;;;;;;;1.10;0.80;;;6.80;99.90;;;;;;4996770;28;20199;-80
2022/02/24 03:18:51;;;;;;;3.63;1.30;;;6.60;99.90;;;;;;4994462;28;20195;-76
2022/02/24 03:21:17;;;;;;;2.47;0.80;;;6.70;99.90;;;;;;4997228;28;20195;-78
2022/02/24 03:23:43;;;;;;;2.93;0.80;;;6.70;99.90;;;;;;5010987;28;20188;-78
2022/02/24 03:26:08;;;;;;;3.10;1.17;;;6.80;99.90;;;;;;5012192;28;20199;-77
2022/02/24 03:28:34;;;;;;;2.10;0.90;;;6.70;99.90;;;;;;4994793;28;20208;-79
2022/02/24 03:31:00;;;;;;;2.20;1.00;;;6.70;99.90;;;;;;5012408;28;20505;-75
2022/02/24 03:33:25;;;;;;;1.83;1.00;;;6.80;99.90;;;;;;5009894;28;20175;-78
2022/02/24 03:35:51;;;;;;;2.33;0.90;;;6.90;99.90;;;;;;4996060;28;20697;-78
2022/02/24 03:38:16;;;;;;;3.77;0.90;;;6.90;99.90;;;;;;5002544;28;20203;-76
2022/02/24 03:40:42;;;;;;;2.30;0.80;;;6.80;99.90;;;;;;4999776;28;20208;-80
2022/02/24 03:43:08;;;;;;;2.53;1.20;;;6.70;99.90;;;;;;4999870;28;20308;-80
2022/02/24 03:45:33;;;;;;;1.90;0.90;;;6.70;99.90;;;;;;4999754;28;20190;-79
2022/02/24 03:47:59;;;;;;;2.37;1.00;;;6.80;99.90;;;;;;5001541;28;20211;-76
2022/02/24 03:50:26;;;;;;;3.03;1.10;;;6.80;99.90;;;;;;5000036;28;20241;-81
2022/02/24 03:52:52;;;;;;;1.30;1.00;;;6.90;99.90;;;;;;4996377;28;20172;-78
2022/02/24 03:55:17;;;;;;;1.87;1.00;;;6.90;99.90;;;;;;4999561;28;20183;-78
2022/02/24 03:57:43;;;;;;;3.23;0.90;;;6.90;99.90;;;;;;4999050;28;20589;-77
2022/02/24 04:00:10;;;;;;;2.93;0.87;;;6.90;99.90;;;;;;5000886;28;20636;-81
2022/02/24 04:02:36;;;;;;;2.90;1.30;;;6.90;99.90;;;;;;5010819;28;20214;-76
2022/02/24 04:05:02;;;;;;;2.83;1.00;;;6.70;99.90;;;;;;4998197;28;20183;-78
2022/02/24 04:07:28;;;;;;;2.73;0.90;;;6.70;99.90;;;;;;5005539;28;20183;-78
2022/02/24 04:09:53;;;;;;;2.97;0.90;;;6.90;99.90;;;;;;5010786;28;20239;-78
2022/02/24 04:12:19;;;;;;;1.90;0.77;;;6.90;99.90;;;;;;4999626;28;20248;-79
2022/02/24 04:14:46;;;;;;;1.53;0.60;;;6.90;99.90;;;;;;5016198;28;20871;-78
2022/02/24 04:17:12;;;;;;;3.63;0.90;;;6.80;99.90;;;;;;4995302;28;21359;-76
2022/02/24 04:19:38;;;;;;;0.77;0.70;;;6.90;99.90;;;;;;4996939;28;20287;-75
2022/02/24 04:22:04;;;;;;;1.30;0.90;;;6.90;99.90;;;;;;5004979;28;20188;-75
2022/02/24 04:24:30;;;;;;;3.30;0.90;;;6.90;99.90;;;;;;5004491;28;20199;-79
2022/02/24 04:26:55;;;;;;;2.27;0.83;;;6.80;99.90;;;;;;4992473;28;20181;-75
2022/02/24 04:29:21;;;;;;;2.33;1.00;;;6.80;99.90;;;;;;4988544;28;20649;-79
2022/02/24 04:31:47;;;;;;;2.17;0.90;;;6.70;99.90;;;;;;4985731;28;20351;-78
2022/02/24 04:34:12;;;;;;;2.77;0.90;;;6.70;99.90;;;;;;4990633;28;20184;-77
2022/02/24 04:36:38;;;;;;;2.70;0.93;;;6.80;99.90;;;;;;4992924;28;20208;-79
2022/02/24 04:39:03;;;;;;;1.87;0.83;;;6.90;99.90;;;;;;4997054;28;20777;-77
2022/02/24 04:41:29;;;;;;;1.33;0.80;;;7.00;99.90;;;;;;5004069;28;20199;-78
2022/02/24 04:43:55;;;;;;;1.50;0.83;;;7.10;99.90;;;;;;4989681;28;20184;-79
2022/02/24 04:46:20;;;;;;;2.00;1.00;;;7.10;99.90;;;;;;4989259;28;20180;-79
2022/02/24 04:48:47;;;;;;;1.53;0.60;;;7.30;99.90;;;;;;4987907;28;20633;-79
2022/02/24 04:51:12;;;;;;;1.80;0.87;;;7.30;99.90;;;;;;5010941;28;20757;-81
2022/02/24 04:53:38;;;;;;;1.67;0.80;;;7.30;99.90;;;;;;4989227;28;20199;-79
2022/02/24 04:56:04;;;;;;;3.17;1.10;;;7.20;99.90;;;;;;4989972;28;20176;-79
2022/02/24 04:58:29;;;;;;;2.40;0.90;;;7.20;99.90;;;;;;5011604;28;20175;-77
2022/02/24 05:00:55;;;;;;;2.67;1.10;;;7.30;99.90;;;;;;4990496;28;20204;-80
2022/02/24 05:03:21;;;;;;;2.03;0.80;;;7.30;99.90;;;;;;4981701;28;20338;-79
2022/02/24 05:05:46;;;;;;;1.93;1.00;;;7.20;99.90;;;;;;4983637;28;20226;-80
2022/02/24 05:08:12;;;;;;;2.23;0.80;;;7.10;99.90;;;;;;5000045;28;20176;-79
2022/02/24 05:10:37;;;;;;;2.27;0.77;;;7.00;99.90;;;;;;4987371;28;20220;-78
2022/02/24 05:13:03;;;;;;;1.70;0.87;;;7.00;99.90;;;;;;5006360;28;20694;-77
2022/02/24 05:15:28;;;;;;;1.53;0.80;;;7.00;99.90;;;;;;4984156;28;20214;-75
2022/02/24 05:17:54;;;;;;;2.53;0.77;;;7.10;99.90;;;;;;4979487;28;20236;-79
2022/02/24 05:20:20;;;;;;;1.60;0.87;;;7.00;99.90;;;;;;5004182;28;20490;-79
2022/02/24 05:22:45;;;;;;;2.40;0.97;;;6.90;99.90;;;;;;4988876;28;20198;-80
2022/02/24 05:25:14;;;;;;;1.67;0.80;;;6.90;99.90;;;;;;4986952;28;20192;-77
2022/02/24 05:27:42;;;;;;;2.43;1.10;;;6.90;99.90;;;;;;5002887;28;20187;-79
2022/02/24 05:30:12;;;;;;;2.20;0.90;;;6.90;99.90;;;;;;5005243;28;20215;-82
2022/02/24 05:32:38;;;;;;;1.40;0.80;;;7.00;99.90;;;;;;5017353;28;20601;-82
2022/02/24 05:35:05;;;;;;;3.37;1.10;;;7.00;99.90;;;;;;4987593;28;20272;-81
2022/02/24 05:37:31;;;;;;;2.90;1.00;;;6.90;99.90;;;;;;5002549;28;20235;-76
2022/02/24 05:39:57;;;;;;;2.60;1.07;;;6.90;99.90;;;;;;5009654;28;20208;-77
2022/02/24 05:42:23;;;;;;;1.93;1.00;;;6.80;99.90;;;;;;5002234;28;20199;-77
2022/02/24 05:44:49;;;;;;;1.00;0.90;;;6.70;99.90;;;;;;4995716;28;20188;-80
2022/02/24 05:47:16;;;;;;;1.47;0.97;;;6.60;99.90;;;;;;5008104;28;20435;-78
2022/02/24 05:49:42;;;;;;;1.37;0.83;;;6.60;99.90;;;;;;5002602;28;20634;-82
2022/02/24 05:52:08;;;;;;;1.40;1.00;;;6.50;99.90;;;;;;5002494;28;20184;-76
2022/02/24 05:54:34;;;;;;;2.33;1.20;;;6.50;99.90;;;;;;4987725;28;20180;-74
2022/02/24 05:57:00;;;;;;;1.83;1.07;;;6.40;99.90;;;;;;5000628;28;20184;-81
2022/02/24 05:59:25;;;;;;;5.00;1.10;;;6.50;99.90;;;;;;4987165;28;20208;-74
2022/02/24 06:01:51;;;;;;;2.50;1.00;;;6.40;99.90;;;;;;5000741;28;20212;-82
2022/02/24 06:04:18;;;;;;;2.10;1.10;;;6.50;99.90;;;;;;4978298;28;20674;-80
2022/02/24 06:06:44;;;;;;;3.03;1.30;;;6.50;99.90;;;;;;5003700;28;20733;-80
2022/02/24 06:09:09;;;;;;;1.30;1.03;;;6.80;99.90;;;;;;4987188;28;20295;-79
2022/02/24 06:11:35;;;;;;;3.67;0.93;;;6.80;99.90;;;;;;5004557;28;20274;-76
2022/02/24 06:14:01;;;;;;;1.13;0.70;;;6.90;99.90;;;;;;5004605;28;20225;-78
2022/02/24 06:16:26;;;;;;;2.47;1.33;;;6.90;99.90;;;;;;5009976;28;20246;-79
2022/02/24 06:18:52;;;;;;;1.33;1.10;;;6.80;99.90;;;;;;4989221;28;20237;-80
2022/02/24 06:21:18;;;;;;;2.70;1.20;;;6.80;99.90;;;;;;4995992;28;20200;-75
2022/02/24 06:23:44;;;;;;;3.50;1.10;;;6.80;99.90;;;;;;5006957;28;20195;-82
2022/02/24 06:26:10;;;;;;;2.77;1.17;;;6.80;99.90;;;;;;5001940;28;20197;-77
2022/02/24 06:28:35;;;;;;;2.83;1.20;;;6.80;99.90;;;;;;4991394;28;20188;-80
2022/02/24 06:31:01;;;;;;;2.43;0.97;;;6.80;99.90;;;;;;4988767;28;20208;-79
2022/02/24 06:33:27;;;;;;;1.90;1.10;;;6.80;99.90;;;;;;5007672;28;20190;-81
2022/02/24 06:35:53;;;;;;;1.83;1.00;;;6.90;99.90;;;;;;4993363;28;20556;-80
2022/02/24 06:38:19;;;;;;;2.50;0.97;;;6.90;99.90;;;;;;4997656;28;20184;-78
2022/02/24 06:40:44;;;;;;;1.67;1.03;;;7.00;99.90;;;;;;4994345;28;20216;-80
2022/02/24 06:43:10;;;;;;;2.27;1.20;;;6.90;99.90;;;;;;4984232;28;20199;-78
2022/02/24 06:45:36;;;;;;;2.27;0.97;;;6.80;99.90;;;;;;5001971;28;20196;-80
2022/02/24 06:48:01;;;;;;;2.00;1.00;;;6.80;99.90;;;;;;5002168;28;20188;-79
2022/02/24 06:50:27;;;;;;;2.90;1.40;;;6.90;99.90;;;;;;4984212;28;20207;-79
2022/02/24 06:52:52;;;;;;;2.13;1.00;;;6.90;99.90;;;;;;4990273;28;20184;-82
2022/02/24 06:55:18;;;;;;;2.40;1.10;;;6.90;99.90;;;;;;4990333;28;20610;-78
2022/02/24 06:57:46;;;;;;;1.60;1.00;;;7.00;99.90;;;;;;4986496;28;20192;-81
2022/02/24 07:00:14;;;;;;;5.47;1.43;;;7.00;99.90;;;;;;4989029;28;20538;-77
2022/02/24 07:02:40;;;;;;;4.13;1.20;;;7.00;99.90;;;;;;4986581;28;20232;-80
2022/02/24 07:05:06;;;;;;;3.23;1.30;;;7.00;99.90;;;;;;4989317;28;20219;-79
2022/02/24 07:07:34;;;;;;;2.40;1.07;;;6.90;99.90;;;;;;5003456;28;20263;-80
2022/02/24 07:10:00;;;;;;;4.10;2.27;;;7.00;99.90;;;;;;4986542;28;20207;-79
2022/02/24 07:12:26;;;;;;;6.77;1.83;;;7.10;99.90;;;;;;4988212;28;20187;-82
2022/02/24 07:14:51;;;;;;;6.87;4.03;;;7.10;99.90;;;;;;4986640;28;20191;-78
2022/02/24 07:17:17;;;;;;;4.03;3.40;;;7.20;99.90;;;;;;4986338;28;20183;-76
2022/02/24 07:19:42;;;;;;;3.70;2.03;;;7.10;99.90;;;;;;4994152;28;20230;-75
2022/02/24 07:22:08;;;;;;;2.97;1.60;;;7.00;99.90;;;;;;5008887;28;20184;-78
2022/02/24 07:24:33;;;;;;;2.67;1.33;;;7.00;99.90;;;;;;5001768;28;20191;-77
2022/02/24 07:26:59;;;;;;;3.33;1.30;;;7.10;99.90;;;;;;4986641;28;20192;-80
2022/02/24 07:29:25;;;;;;;2.67;1.23;;;7.10;99.90;;;;;;4990428;28;20220;-80
2022/02/24 07:31:50;;;;;;;4.20;1.07;;;7.10;99.90;;;;;;4986762;28;20274;-82
2022/02/24 07:34:16;;;;;;;2.27;1.23;;;7.30;99.90;;;;;;4988843;28;20275;-78
2022/02/24 07:36:43;;;;;;;2.90;1.70;;;7.30;99.90;;;;;;4994851;28;20199;-80
2022/02/24 07:39:10;;;;;;;4.00;2.17;;;7.10;99.90;;;;;;5005513;28;20184;-79
2022/02/24 07:41:39;;;;;;;2.30;1.47;;;7.10;99.90;;;;;;5011062;28;20850;-78
2022/02/24 07:44:06;;;;;;;4.77;1.57;;;7.10;99.90;;;;;;4984781;28;20188;-75
2022/02/24 07:46:32;;;;;;;4.20;1.97;;;7.20;99.90;;;;;;4990926;28;20555;-80
2022/02/24 07:48:58;;;;;;;1.73;1.20;;;7.40;99.90;;;;;;5001167;28;20864;-81
2022/02/24 07:51:24;;;;;;;2.20;1.10;;;7.40;99.90;;;;;;5001220;28;20176;-78
2022/02/24 07:53:49;;;;;;;2.17;1.07;;;7.30;99.90;;;;;;5009119;28;20176;-77
2022/02/24 07:56:15;;;;;;;2.37;1.23;;;7.30;99.90;;;;;;5005493;28;20190;-80
2022/02/24 07:58:41;;;;;;;4.70;1.10;;;7.30;99.90;;;;;;5006737;28;20864;-79
2022/02/24 08:01:06;;;;;;;1.50;0.90;;;7.30;99.90;;;;;;4993635;28;20204;-82
2022/02/24 08:03:33;;;;;;;5.93;2.83;;;7.30;99.90;;;;;;5003772;28;20280;-80
2022/02/24 08:05:58;;;;;;;3.03;1.23;;;7.30;99.90;;;;;;5012284;28;20644;-79
2022/02/24 08:08:24;;;;;;;2.47;1.10;;;7.30;99.90;;;;;;4995716;28;20182;-80
2022/02/24 08:10:51;;;;;;;5.27;1.60;;;7.30;99.90;;;;;;5011698;28;20780;-83
2022/02/24 08:13:17;;;;;;;3.60;1.67;;;7.30;99.90;;;;;;4993242;28;20184;-80
2022/02/24 08:15:43;;;;;;;6.07;2.70;;;7.20;99.90;;;;;;5009226;28;20183;-78
2022/02/24 08:18:09;;;;;;;4.37;2.00;;;7.30;99.90;;;;;;5013401;28;20253;-77
2022/02/24 08:20:35;;;;;;;3.27;1.33;;;7.30;99.90;;;;;;5012236;28;20227;-77
2022/02/24 08:23:03;;;;;;;5.27;1.60;;;7.30;99.90;;;;;;5008394;28;20192;-74
2022/02/24 08:25:31;;;;;;;2.60;1.37;;;7.30;99.90;;;;;;5011825;28;20709;-83
2022/02/24 08:27:57;;;;;;;2.70;1.63;;;7.20;99.90;;;;;;4996536;28;20245;-80
2022/02/24 08:30:23;;;;;;;4.60;1.43;;;7.30;99.90;;;;;;4998849;28;20223;-80
2022/02/24 08:32:50;;;;;;;4.20;1.20;;;7.30;99.90;;;;;;5011489;28;20625;-82
2022/02/24 08:35:17;;;;;;;4.33;1.30;;;7.30;99.90;;;;;;4995918;28;20194;-79
2022/02/24 08:37:44;;;;;;;3.57;1.60;;;7.30;99.90;;;;;;4998600;28;20246;-77
2022/02/24 08:40:11;;;;;;;2.10;1.00;;;7.30;99.90;;;;;;5014506;28;20215;-79
2022/02/24 08:42:37;;;;;;;2.73;1.23;;;7.30;99.90;;;;;;4997803;28;20210;-79
2022/02/24 08:45:04;;;;;;;2.80;1.43;;;7.30;99.90;;;;;;5001016;28;20188;-77
2022/02/24 08:47:29;;;;;;;2.57;2.03;;;7.30;99.90;;;;;;4999966;28;20188;-77
2022/02/24 08:49:55;;;;;;;2.00;1.30;;;7.30;99.90;;;;;;4999114;28;20223;-81
2022/02/24 08:52:21;;;;;;;2.43;1.00;;;7.40;99.90;;;;;;5011674;28;20213;-79
2022/02/24 08:54:47;;;;;;;3.37;1.17;;;7.40;99.90;;;;;;5003559;28;20192;-80
2022/02/24 08:57:13;;;;;;;1.60;1.23;;;7.50;99.90;;;;;;5011351;28;20198;-79
2022/02/24 08:59:39;;;;;;;1.97;1.10;;;7.50;99.90;;;;;;4997113;28;20207;-81
2022/02/24 09:02:05;;;;;;;3.20;1.30;;;7.50;99.90;;;;;;4998190;28;20201;-80
2022/02/24 09:04:31;;;;;;;4.03;1.20;;;7.60;99.90;;;;;;4996044;28;20654;-79
2022/02/24 09:06:56;;;;;;;2.70;1.13;;;7.60;99.90;;;;;;5013128;28;20183;-82
2022/02/24 09:09:25;;;;;;;1.83;0.97;;;7.80;99.90;;;;;;5012531;28;20239;-79
2022/02/24 09:11:51;;;;;;;3.33;1.10;;;7.80;99.90;;;;;;5013970;28;20661;-77
2022/02/24 09:14:17;;;;;;;5.40;1.27;;;7.90;99.90;;;;;;4998503;28;20184;-79
2022/02/24 09:16:43;;;;;;;4.93;1.20;;;7.90;99.90;;;;;;5016935;28;20190;-80
2022/02/24 09:19:10;;;;;;;2.30;1.47;;;8.00;99.90;;;;;;5001406;28;20223;-79
2022/02/24 09:21:36;;;;;;;3.40;1.10;;;8.00;99.90;;;;;;5002662;28;20206;-80
2022/02/24 09:24:02;;;;;;;3.00;1.87;;;8.10;99.90;;;;;;5001986;28;20692;-79
2022/02/24 09:26:28;;;;;;;10.00;3.57;;;8.30;99.90;;;;;;5002684;28;20191;-80
2022/02/24 09:28:54;;;;;;;9.50;4.30;;;8.50;99.90;;;;;;5000995;28;20280;-80
2022/02/24 09:31:20;;;;;;;4.37;2.63;;;8.60;99.90;;;;;;5000947;28;20187;-80
2022/02/24 09:33:46;;;;;;;2.83;1.53;;;8.70;99.90;;;;;;4995502;28;20266;-80
2022/02/24 09:36:12;;;;;;;3.67;1.67;;;9.00;99.90;;;;;;4998858;28;20215;-81
2022/02/24 09:38:37;;;;;;;3.77;1.13;;;9.10;99.90;;;;;;5002120;28;20183;-81
2022/02/24 09:41:04;;;;;;;1.97;1.00;;;9.30;99.90;;;;;;5018997;28;20231;-78
2022/02/24 09:43:33;;;;;;;3.63;1.03;;;9.40;99.90;;;;;;4999628;28;20709;-78
2022/02/24 09:46:03;;;;;;;3.00;1.30;;;9.60;99.90;;;;;;4999431;28;20207;-78
2022/02/24 09:48:31;;;;;;;2.10;1.17;;;9.80;99.90;;;;;;4999723;28;20348;-79
2022/02/24 09:50:58;;;;;;;2.33;1.00;;;10.00;99.90;;;;;;4998847;28;20267;-76
2022/02/24 09:53:24;;;;;;;2.23;1.17;;;10.10;99.90;;;;;;5018034;28;20270;-79
2022/02/24 09:55:50;;;;;;;2.43;1.10;;;10.10;99.90;;;;;;4992829;28;20246;-78
2022/02/24 09:58:16;;;;;;;3.10;1.20;;;10.30;99.90;;;;;;4997259;28;20188;-81
2022/02/24 10:00:42;;;;;;;2.73;0.93;;;10.40;99.90;;;;;;5008488;28;20211;-78
2022/02/24 10:03:27;;;;;;;3.47;1.20;;;10.30;99.90;;;;;;5010209;28;20617;-81
2022/02/24 10:05:54;;;;;;;2.87;1.07;;;10.30;99.90;;;;;;4997227;28;20288;-80
2022/02/24 10:08:30;;;;;;;2.20;0.97;;;10.40;99.90;;;;;;4994313;28;20192;-80
2022/02/24 10:10:58;;;;;;;3.10;1.10;;;10.40;99.90;;;;;;4991629;28;20581;-78
2022/02/24 10:13:24;;;;;;;2.07;1.50;;;10.40;99.90;;;;;;5002608;28;20709;-78
2022/02/24 10:15:59;;;;;;;2.70;1.10;;;10.20;99.90;;;;;;4996043;28;20219;-79
2022/02/24 10:18:28;;;;;;;2.27;1.07;;;10.20;99.90;;;;;;4991213;28;20179;-80
2022/02/24 10:20:57;;;;;;;4.30;1.37;;;10.20;99.90;;;;;;5003419;28;20192;-81
2022/02/24 10:23:34;;;;;;;1.67;1.10;;;10.20;99.90;;;;;;5012633;28;20180;-78
2022/02/24 10:26:03;;;;;;;1.37;0.93;;;10.20;99.90;;;;;;4993119;28;20448;-81
2022/02/24 10:28:45;;;;;;;2.40;1.00;;;10.40;99.90;;;;;;4991973;28;20436;-80
2022/02/24 10:31:10;;;;;;;2.50;1.27;;;10.50;99.90;;;;;;5000847;28;20571;-80
2022/02/24 10:33:38;;;;;;;4.40;1.23;;;10.60;99.90;;;;;;4998029;28;20192;-80
2022/02/24 10:36:20;;;;;;;3.43;1.20;;;10.70;99.90;;;;;;5010467;28;20466;-79
2022/02/24 10:39:11;;;;;;;2.90;1.00;;;10.60;99.90;;;;;;5000269;28;20179;-82
2022/02/24 10:41:38;;;;;;;2.67;1.00;;;10.60;99.90;;;;;;4994018;28;20192;-80
2022/02/24 10:44:17;;;;;;;3.50;1.27;;;10.70;99.90;;;;;;4999103;28;20188;-80
2022/02/24 10:46:46;;;;;;;2.20;1.17;;;10.80;99.90;;;;;;4992627;28;20195;-79
2022/02/24 10:49:13;;;;;;;2.33;1.00;;;10.70;99.90;;;;;;4993733;28;20204;-76
2022/02/24 10:51:41;;;;;;;2.30;1.00;;;10.70;99.90;;;;;;4999201;28;20179;-81
2022/02/24 10:54:12;;;;;;;2.47;0.90;;;10.70;99.90;;;;;;4990096;28;20255;-79
2022/02/24 10:56:43;;;;;;;3.07;1.03;;;10.60;99.90;;;;;;4998239;28;20190;-79
2022/02/24 10:59:12;;;;;;;3.23;1.37;;;10.70;99.90;;;;;;4997857;28;20180;-79
2022/02/24 11:01:40;;;;;;;2.00;0.93;;;10.70;99.90;;;;;;5004105;28;20187;-78
2022/02/24 11:04:07;;;;;;;3.27;0.90;;;10.70;99.90;;;;;;5000160;28;20218;-79
2022/02/24 11:06:35;;;;;;;2.10;1.30;;;10.80;99.90;;;;;;4989627;28;20188;-79
2022/02/24 11:09:04;;;;;;;2.33;1.00;;;10.80;99.90;;;;;;5014625;28;20212;-81
2022/02/24 11:11:32;;;;;;;3.53;1.23;;;10.80;99.90;;;;;;4997882;28;20172;-80
2022/02/24 11:13:59;;;;;;;3.00;1.30;;;10.90;99.90;;;;;;4993821;28;20225;-80
2022/02/24 11:16:27;;;;;;;2.80;0.90;;;10.80;99.90;;;;;;5008270;28;20192;-81
2022/02/24 11:18:53;;;;;;;2.27;1.30;;;10.90;99.90;;;;;;4992187;28;20204;-78
2022/02/24 11:21:21;;;;;;;0.70;0.70;;;11.00;99.90;;;;;;4989174;28;20279;-79
2022/02/24 11:23:48;;;;;;;3.05;1.05;;;11.00;99.90;;;;;;4988265;28;20196;-78
2022/02/24 11:26:31;;;;;;;1.53;0.80;;;11.00;99.90;;;;;;4987126;28;20200;-77
2022/02/24 11:29:24;;;;;;;2.60;0.80;;;11.10;99.90;;;;;;4992817;28;20460;-78
2022/02/24 11:32:15;;;;;;;4.60;1.02;;;11.20;99.90;;;;;;5008344;28;20618;-79
2022/02/24 11:35:07;;;;;;;1.98;0.85;;;11.10;99.90;;;;;;4987430;28;20440;-80
2022/02/24 11:37:38;;;;;;;2.60;0.90;;;11.20;99.90;;;;;;4992020;28;20638;-79
2022/02/24 11:40:04;;;;;;;3.65;1.38;;;11.40;99.90;;;;;;4991576;28;20212;-80
2022/02/24 11:42:32;;;;;;;1.50;0.85;;;11.50;99.90;;;;;;4992885;28;20207;-80
2022/02/24 11:44:58;;;;;;;1.67;0.90;;;11.60;99.90;;;;;;4991371;28;20188;-77
2022/02/24 11:47:24;;;;;;;1.87;1.00;;;11.50;99.90;;;;;;4992639;28;20188;-80
2022/02/24 11:49:53;;;;;;;1.65;1.00;;;11.60;99.90;;;;;;4989832;28;20215;-80
2022/02/24 11:52:28;;;;;;;1.33;0.73;;;11.60;99.90;;;;;;4991051;28;20184;-80
2022/02/24 11:54:54;;;;;;;2.17;1.20;;;11.50;99.90;;;;;;4989836;28;20451;-80
2022/02/24 11:57:31;;;;;;;1.20;0.80;;;11.40;99.90;;;;;;5011017;28;20596;-78
2022/02/24 11:59:59;;;;;;;1.42;1.00;;;11.50;99.90;;;;;;4994446;28;20211;-80
2022/02/24 12:02:41;;;;;;;1.60;0.80;;;11.50;99.90;;;;;;5000377;28;20223;-79
2022/02/24 12:05:16;;;;;;;2.23;0.90;;;11.60;99.90;;;;;;4995082;28;20317;-79
2022/02/24 12:08:01;;;;;;;3.20;1.37;;;11.60;99.90;;;;;;4995627;28;20266;-79
2022/02/24 12:10:49;;;;;;;3.70;1.50;;;11.50;99.90;;;;;;4995140;28;20219;-80
2022/02/24 12:13:26;;;;;;;1.20;0.90;;;11.50;99.90;;;;;;4996990;28;20354;-79
2022/02/24 12:16:15;;;;;;;1.55;0.90;;;11.50;99.90;;;;;;4997874;28;20187;-77
2022/02/24 12:18:42;;;;;;;1.88;1.10;;;11.50;99.90;;;;;;4994592;28;20189;-78
2022/02/24 12:21:30;;;;;;;1.92;0.90;;;11.30;99.90;;;;;;4997467;28;20270;-79
2022/02/24 12:24:02;;;;;;;1.77;1.00;;;11.30;99.90;;;;;;4995874;28;20180;-78
2022/02/24 12:26:43;;;;;;;2.15;1.17;;;11.40;99.90;;;;;;4998046;28;20613;-79
2022/02/24 12:29:19;;;;;;;2.15;0.88;;;11.50;99.90;;;;;;4991310;28;20266;-81
2022/02/24 12:31:46;;;;;;;1.70;0.88;;;11.70;99.90;;;;;;5001373;28;20187;-78
2022/02/24 12:34:11;;;;;;;1.63;1.20;;;11.70;99.90;;;;;;4994535;28;20180;-79
2022/02/24 12:36:37;;;;;;;2.30;1.05;;;11.90;99.90;;;;;;4993374;28;20233;-78
2022/02/24 12:39:06;;;;;;;1.85;1.48;;;11.80;99.90;;;;;;4994233;28;20643;-78
2022/02/24 12:41:32;;;;;;;2.20;1.08;;;11.70;99.90;;;;;;5001595;28;20279;-78
2022/02/24 12:43:58;;;;;;;1.75;0.93;;;11.70;99.90;;;;;;4995813;28;20211;-78
2022/02/24 12:46:23;;;;;;;3.15;1.08;;;11.70;99.90;;;;;;5008746;28;20220;-78
2022/02/24 12:48:49;;;;;;;2.67;1.25;;;11.70;99.90;;;;;;4997854;28;20660;-79
2022/02/24 12:51:22;;;;;;;3.70;1.52;;;11.60;99.90;;;;;;4993554;28;20228;-78
2022/02/24 12:53:48;;;;;;;1.77;1.00;;;11.60;99.90;;;;;;4996568;28;20208;-79
2022/02/24 12:56:16;;;;;;;1.45;1.10;;;11.60;99.90;;;;;;4991405;28;20670;-79